sensor_id;sensor_type;location;lat;lon;timestamp;P1;durP1;ratioP1;P2;durP2;ratioP2
36833;SDS011;48003;52.084;5.224;2023-06-19T00:01:49;8.9;;;7.2;;
36833;SDS011;48003;52.084;5.224;2023-06-19T00:03:26;9.6;;;7.0;;
36833;SDS011;48003;52.084;5.224;2023-06-19T00:05:02;9.71;;;7.4;;
36833;SDS011;48003;52.084;5.224;2023-06-19T00:08:15;8.9;;;7.3;;
36833;SDS011;48003;52.084;5.224;2023-06-19T00:09:52;9.9;;;7.0;;
36833;SDS011;48003;52.084;5.224;2023-06-19T00:11:28;10.7;;;7.7;;
36833;SDS011;48003;52.084;5.224;2023-06-19T00:14:42;12.4;;;7.5;;
36833;SDS011;48003;52.084;5.224;2023-06-19T00:16:19;11.5;;;7.8;;
36833;SDS011;48003;52.084;5.224;2023-06-19T00:17:56;10.6;;;7.6;;
36833;SDS011;48003;52.084;5.224;2023-06-19T00:19:33;11.2;;;8.1;;
36833;SDS011;48003;52.084;5.224;2023-06-19T00:22:47;10.6;;;7.8;;
36833;SDS011;48003;52.084;5.224;2023-06-19T00:24:23;10.4;;;8.4;;
36833;SDS011;48003;52.084;5.224;2023-06-19T00:25:59;11.1;;;8.0;;
36833;SDS011;48003;52.084;5.224;2023-06-19T00:29:12;10.21;;;8.0;;
36833;SDS011;48003;52.084;5.224;2023-06-19T00:30:48;10.7;;;8.5;;
36833;SDS011;48003;52.084;5.224;2023-06-19T00:32:25;11.1;;;8.4;;
36833;SDS011;48003;52.084;5.224;2023-06-19T00:35:37;11.1;;;8.2;;
36833;SDS011;48003;52.084;5.224;2023-06-19T00:37:13;10.3;;;7.0;;
36833;SDS011;48003;52.084;5.224;2023-06-19T00:38:49;9.21;;;7.4;;
36833;SDS011;48003;52.084;5.224;2023-06-19T00:40:27;10.0;;;7.2;;
36833;SDS011;48003;52.084;5.224;2023-06-19T00:43:41;8.6;;;7.0;;
36833;SDS011;48003;52.084;5.224;2023-06-19T00:45:18;11.2;;;7.5;;
36833;SDS011;48003;52.084;5.224;2023-06-19T00:46:57;9.6;;;6.8;;
36833;SDS011;48003;52.084;5.224;2023-06-19T00:50:12;8.1;;;6.1;;
36833;SDS011;48003;52.084;5.224;2023-06-19T00:51:49;8.81;;;5.5;;
36833;SDS011;48003;52.084;5.224;2023-06-19T00:53:28;6.1;;;5.11;;
36833;SDS011;48003;52.084;5.224;2023-06-19T00:55:08;5.7;;;4.2;;
36833;SDS011;48003;52.084;5.224;2023-06-19T00:58:22;7.4;;;3.6;;
36833;SDS011;48003;52.084;5.224;2023-06-19T00:59:59;7.1;;;3.2;;
36833;SDS011;48003;52.084;5.224;2023-06-19T01:01:35;5.0;;;2.7;;
36833;SDS011;48003;52.084;5.224;2023-06-19T01:04:49;4.61;;;2.9;;
36833;SDS011;48003;52.084;5.224;2023-06-19T01:06:27;4.7;;;2.4;;
36833;SDS011;48003;52.084;5.224;2023-06-19T01:08:23;4.41;;;2.4;;
36833;SDS011;48003;52.084;5.224;2023-06-19T01:10:26;3.9;;;2.7;;
36833;SDS011;48003;52.084;5.224;2023-06-19T01:12:10;3.3;;;2.31;;
36833;SDS011;48003;52.084;5.224;2023-06-19T01:13:55;7.4;;;2.7;;
36833;SDS011;48003;52.084;5.224;2023-06-19T01:17:14;3.7;;;2.8;;
36833;SDS011;48003;52.084;5.224;2023-06-19T01:18:51;3.0;;;2.4;;
36833;SDS011;48003;52.084;5.224;2023-06-19T01:20:30;4.3;;;2.21;;
36833;SDS011;48003;52.084;5.224;2023-06-19T01:23:42;7.4;;;2.6;;
36833;SDS011;48003;52.084;5.224;2023-06-19T01:25:19;3.7;;;2.31;;
36833;SDS011;48003;52.084;5.224;2023-06-19T01:26:57;4.1;;;2.31;;
36833;SDS011;48003;52.084;5.224;2023-06-19T01:28:33;4.61;;;2.1;;
36833;SDS011;48003;52.084;5.224;2023-06-19T01:31:50;4.0;;;2.21;;
36833;SDS011;48003;52.084;5.224;2023-06-19T01:33:35;3.0;;;2.1;;
36833;SDS011;48003;52.084;5.224;2023-06-19T01:35:15;4.5;;;2.21;;
36833;SDS011;48003;52.084;5.224;2023-06-19T01:36:57;3.0;;;2.21;;
36833;SDS011;48003;52.084;5.224;2023-06-19T01:40:13;3.9;;;2.1;;
36833;SDS011;48003;52.084;5.224;2023-06-19T01:41:52;3.2;;;2.1;;
36833;SDS011;48003;52.084;5.224;2023-06-19T01:43:30;3.6;;;1.8;;
36833;SDS011;48003;52.084;5.224;2023-06-19T01:46:47;3.1;;;2.0;;
36833;SDS011;48003;52.084;5.224;2023-06-19T01:48:24;5.0;;;1.9;;
36833;SDS011;48003;52.084;5.224;2023-06-19T01:50:01;3.8;;;2.1;;
36833;SDS011;48003;52.084;5.224;2023-06-19T01:51:39;4.5;;;2.1;;
36833;SDS011;48003;52.084;5.224;2023-06-19T01:54:52;3.6;;;2.21;;
36833;SDS011;48003;52.084;5.224;2023-06-19T01:56:28;5.0;;;2.31;;
36833;SDS011;48003;52.084;5.224;2023-06-19T01:58:05;4.2;;;2.6;;
36833;SDS011;48003;52.084;5.224;2023-06-19T02:01:19;4.61;;;2.6;;
36833;SDS011;48003;52.084;5.224;2023-06-19T02:02:56;4.41;;;2.31;;
36833;SDS011;48003;52.084;5.224;2023-06-19T02:04:32;5.6;;;2.7;;
36833;SDS011;48003;52.084;5.224;2023-06-19T02:07:45;3.7;;;2.5;;
36833;SDS011;48003;52.084;5.224;2023-06-19T02:09:21;3.5;;;2.7;;
36833;SDS011;48003;52.084;5.224;2023-06-19T02:10:58;4.5;;;2.6;;
36833;SDS011;48003;52.084;5.224;2023-06-19T02:12:34;4.5;;;2.5;;
36833;SDS011;48003;52.084;5.224;2023-06-19T02:15:46;6.8;;;2.8;;
36833;SDS011;48003;52.084;5.224;2023-06-19T02:17:22;4.61;;;2.5;;
36833;SDS011;48003;52.084;5.224;2023-06-19T02:18:59;4.61;;;2.5;;
36833;SDS011;48003;52.084;5.224;2023-06-19T02:22:11;3.2;;;2.8;;
36833;SDS011;48003;52.084;5.224;2023-06-19T02:23:48;4.1;;;3.0;;
36833;SDS011;48003;52.084;5.224;2023-06-19T02:25:24;4.7;;;3.2;;
36833;SDS011;48003;52.084;5.224;2023-06-19T02:28:37;6.5;;;2.9;;
36833;SDS011;48003;52.084;5.224;2023-06-19T02:30:13;4.7;;;2.9;;
36833;SDS011;48003;52.084;5.224;2023-06-19T02:31:50;3.1;;;2.7;;
36833;SDS011;48003;52.084;5.224;2023-06-19T02:33:27;4.1;;;3.4;;
36833;SDS011;48003;52.084;5.224;2023-06-19T02:36:45;5.6;;;3.4;;
36833;SDS011;48003;52.084;5.224;2023-06-19T02:38:21;4.2;;;3.4;;
36833;SDS011;48003;52.084;5.224;2023-06-19T02:39:57;8.2;;;3.7;;
36833;SDS011;48003;52.084;5.224;2023-06-19T02:43:10;6.5;;;3.3;;
36833;SDS011;48003;52.084;5.224;2023-06-19T02:44:47;5.0;;;3.5;;
36833;SDS011;48003;52.084;5.224;2023-06-19T02:46:23;5.9;;;3.5;;
36833;SDS011;48003;52.084;5.224;2023-06-19T02:49:35;5.0;;;3.1;;
36833;SDS011;48003;52.084;5.224;2023-06-19T02:51:11;5.11;;;3.2;;
36833;SDS011;48003;52.084;5.224;2023-06-19T02:52:48;4.91;;;3.3;;
36833;SDS011;48003;52.084;5.224;2023-06-19T02:54:25;4.7;;;3.3;;
36833;SDS011;48003;52.084;5.224;2023-06-19T02:57:38;3.8;;;3.3;;
36833;SDS011;48003;52.084;5.224;2023-06-19T02:59:14;5.7;;;3.3;;
36833;SDS011;48003;52.084;5.224;2023-06-19T03:00:50;5.2;;;3.4;;
36833;SDS011;48003;52.084;5.224;2023-06-19T03:04:03;7.0;;;4.1;;
36833;SDS011;48003;52.084;5.224;2023-06-19T03:05:40;4.91;;;4.2;;
36833;SDS011;48003;52.084;5.224;2023-06-19T03:07:16;7.2;;;4.41;;
36833;SDS011;48003;52.084;5.224;2023-06-19T03:10:29;6.0;;;4.41;;
36833;SDS011;48003;52.084;5.224;2023-06-19T03:12:06;5.3;;;3.7;;
36833;SDS011;48003;52.084;5.224;2023-06-19T03:13:44;6.5;;;4.1;;
36833;SDS011;48003;52.084;5.224;2023-06-19T03:15:24;5.6;;;4.1;;
36833;SDS011;48003;52.084;5.224;2023-06-19T03:18:36;5.6;;;4.5;;
36833;SDS011;48003;52.084;5.224;2023-06-19T03:20:13;5.5;;;4.61;;
36833;SDS011;48003;52.084;5.224;2023-06-19T03:21:49;5.8;;;4.3;;
36833;SDS011;48003;52.084;5.224;2023-06-19T03:25:01;7.6;;;4.8;;
36833;SDS011;48003;52.084;5.224;2023-06-19T03:26:37;5.0;;;4.2;;
36833;SDS011;48003;52.084;5.224;2023-06-19T03:28:13;6.1;;;4.61;;
36833;SDS011;48003;52.084;5.224;2023-06-19T03:31:26;8.4;;;5.11;;
36833;SDS011;48003;52.084;5.224;2023-06-19T03:33:02;7.3;;;5.11;;
36833;SDS011;48003;52.084;5.224;2023-06-19T03:34:38;6.5;;;4.8;;
36833;SDS011;48003;52.084;5.224;2023-06-19T03:36:14;8.81;;;5.6;;
36833;SDS011;48003;52.084;5.224;2023-06-19T03:39:27;10.4;;;7.1;;
36833;SDS011;48003;52.084;5.224;2023-06-19T03:41:04;6.7;;;6.0;;
36833;SDS011;48003;52.084;5.224;2023-06-19T03:42:41;7.6;;;6.6;;
36833;SDS011;48003;52.084;5.224;2023-06-19T03:45:53;10.21;;;7.1;;
36833;SDS011;48003;52.084;5.224;2023-06-19T03:47:30;14.0;;;8.71;;
36833;SDS011;48003;52.084;5.224;2023-06-19T03:49:06;12.4;;;8.81;;
36833;SDS011;48003;52.084;5.224;2023-06-19T03:52:20;12.0;;;9.21;;
36833;SDS011;48003;52.084;5.224;2023-06-19T03:53:57;9.6;;;8.6;;
36833;SDS011;48003;52.084;5.224;2023-06-19T03:55:34;12.2;;;10.21;;
36833;SDS011;48003;52.084;5.224;2023-06-19T03:57:11;12.5;;;10.1;;
36833;SDS011;48003;52.084;5.224;2023-06-19T04:00:24;13.3;;;11.1;;
36833;SDS011;48003;52.084;5.224;2023-06-19T04:02:00;14.9;;;11.5;;
36833;SDS011;48003;52.084;5.224;2023-06-19T04:03:37;14.9;;;11.5;;
36833;SDS011;48003;52.084;5.224;2023-06-19T04:06:51;13.8;;;11.1;;
36833;SDS011;48003;52.084;5.224;2023-06-19T04:08:27;15.0;;;11.4;;
36833;SDS011;48003;52.084;5.224;2023-06-19T04:10:03;15.0;;;11.6;;
36833;SDS011;48003;52.084;5.224;2023-06-19T04:13:16;14.0;;;10.7;;
36833;SDS011;48003;52.084;5.224;2023-06-19T04:14:53;14.0;;;10.21;;
36833;SDS011;48003;52.084;5.224;2023-06-19T04:16:30;15.1;;;11.0;;
36833;SDS011;48003;52.084;5.224;2023-06-19T04:18:07;12.1;;;10.8;;
36833;SDS011;48003;52.084;5.224;2023-06-19T04:21:19;12.5;;;9.81;;
36833;SDS011;48003;52.084;5.224;2023-06-19T04:22:56;13.1;;;10.7;;
36833;SDS011;48003;52.084;5.224;2023-06-19T04:24:34;17.91;;;12.6;;
36833;SDS011;48003;52.084;5.224;2023-06-19T04:27:47;17.41;;;13.1;;
36833;SDS011;48003;52.084;5.224;2023-06-19T04:29:23;17.3;;;13.3;;
36833;SDS011;48003;52.084;5.224;2023-06-19T04:30:59;17.3;;;13.3;;
36833;SDS011;48003;52.084;5.224;2023-06-19T04:34:13;16.4;;;12.3;;
36833;SDS011;48003;52.084;5.224;2023-06-19T04:35:52;15.0;;;11.8;;
36833;SDS011;48003;52.084;5.224;2023-06-19T04:37:28;14.8;;;11.0;;
36833;SDS011;48003;52.084;5.224;2023-06-19T04:39:06;11.9;;;9.21;;
36833;SDS011;48003;52.084;5.224;2023-06-19T04:42:20;13.3;;;8.4;;
36833;SDS011;48003;52.084;5.224;2023-06-19T04:43:57;9.9;;;7.0;;
36833;SDS011;48003;52.084;5.224;2023-06-19T04:45:34;8.81;;;5.9;;
36833;SDS011;48003;52.084;5.224;2023-06-19T04:48:50;6.6;;;5.0;;
36833;SDS011;48003;52.084;5.224;2023-06-19T04:50:27;7.2;;;4.8;;
36833;SDS011;48003;52.084;5.224;2023-06-19T04:52:03;5.11;;;3.7;;
36833;SDS011;48003;52.084;5.224;2023-06-19T04:53:40;5.7;;;3.0;;
36833;SDS011;48003;52.084;5.224;2023-06-19T04:56:52;4.0;;;2.7;;
36833;SDS011;48003;52.084;5.224;2023-06-19T04:58:28;2.8;;;2.31;;
36833;SDS011;48003;52.084;5.224;2023-06-19T05:00:05;3.7;;;2.21;;
36833;SDS011;48003;52.084;5.224;2023-06-19T05:03:20;4.91;;;2.5;;
36833;SDS011;48003;52.084;5.224;2023-06-19T05:04:57;2.6;;;2.1;;
36833;SDS011;48003;52.084;5.224;2023-06-19T05:06:34;4.2;;;2.1;;
36833;SDS011;48003;52.084;5.224;2023-06-19T05:09:49;2.9;;;1.8;;
36833;SDS011;48003;52.084;5.224;2023-06-19T05:11:26;3.7;;;2.4;;
36833;SDS011;48003;52.084;5.224;2023-06-19T05:13:04;2.7;;;2.0;;
36833;SDS011;48003;52.084;5.224;2023-06-19T05:14:39;2.8;;;1.7;;
36833;SDS011;48003;52.084;5.224;2023-06-19T05:17:53;4.3;;;1.8;;
36833;SDS011;48003;52.084;5.224;2023-06-19T05:19:30;6.1;;;1.9;;
36833;SDS011;48003;52.084;5.224;2023-06-19T05:21:07;4.1;;;2.0;;
36833;SDS011;48003;52.084;5.224;2023-06-19T05:24:22;4.1;;;2.0;;
36833;SDS011;48003;52.084;5.224;2023-06-19T05:25:59;3.5;;;2.21;;
36833;SDS011;48003;52.084;5.224;2023-06-19T05:27:36;4.91;;;2.6;;
36833;SDS011;48003;52.084;5.224;2023-06-19T05:29:13;4.3;;;2.8;;
36833;SDS011;48003;52.084;5.224;2023-06-19T05:32:26;3.8;;;2.8;;
36833;SDS011;48003;52.084;5.224;2023-06-19T05:34:02;3.3;;;2.7;;
36833;SDS011;48003;52.084;5.224;2023-06-19T05:35:38;3.7;;;3.1;;
36833;SDS011;48003;52.084;5.224;2023-06-19T05:38:52;3.6;;;3.0;;
36833;SDS011;48003;52.084;5.224;2023-06-19T05:40:30;7.1;;;3.5;;
36833;SDS011;48003;52.084;5.224;2023-06-19T05:42:06;4.8;;;3.8;;
36833;SDS011;48003;52.084;5.224;2023-06-19T05:45:20;5.5;;;4.3;;
36833;SDS011;48003;52.084;5.224;2023-06-19T05:46:56;6.6;;;5.0;;
36833;SDS011;48003;52.084;5.224;2023-06-19T05:48:32;6.5;;;4.41;;
36833;SDS011;48003;52.084;5.224;2023-06-19T05:50:09;8.2;;;5.5;;
36833;SDS011;48003;52.084;5.224;2023-06-19T05:53:23;8.0;;;5.7;;
36833;SDS011;48003;52.084;5.224;2023-06-19T05:54:59;7.5;;;5.4;;
36833;SDS011;48003;52.084;5.224;2023-06-19T05:56:35;8.71;;;6.1;;
36833;SDS011;48003;52.084;5.224;2023-06-19T05:59:50;6.0;;;5.3;;
36833;SDS011;48003;52.084;5.224;2023-06-19T06:01:27;8.5;;;5.7;;
36833;SDS011;48003;52.084;5.224;2023-06-19T06:03:04;6.5;;;5.2;;
36833;SDS011;48003;52.084;5.224;2023-06-19T06:04:41;7.0;;;5.6;;
36833;SDS011;48003;52.084;5.224;2023-06-19T06:07:55;8.6;;;5.11;;
36833;SDS011;48003;52.084;5.224;2023-06-19T06:09:32;6.3;;;5.11;;
36833;SDS011;48003;52.084;5.224;2023-06-19T06:11:09;7.3;;;5.0;;
36833;SDS011;48003;52.084;5.224;2023-06-19T06:14:25;6.4;;;5.2;;
36833;SDS011;48003;52.084;5.224;2023-06-19T06:16:01;6.8;;;5.11;;
36833;SDS011;48003;52.084;5.224;2023-06-19T06:17:38;6.4;;;5.0;;
36833;SDS011;48003;52.084;5.224;2023-06-19T06:20:52;7.4;;;5.3;;
36833;SDS011;48003;52.084;5.224;2023-06-19T06:22:29;7.5;;;5.9;;
36833;SDS011;48003;52.084;5.224;2023-06-19T06:24:06;6.9;;;5.3;;
36833;SDS011;48003;52.084;5.224;2023-06-19T06:25:44;7.8;;;5.2;;
36833;SDS011;48003;52.084;5.224;2023-06-19T06:28:56;6.6;;;5.11;;
36833;SDS011;48003;52.084;5.224;2023-06-19T06:30:34;9.81;;;6.5;;
36833;SDS011;48003;52.084;5.224;2023-06-19T06:32:11;7.7;;;5.7;;
36833;SDS011;48003;52.084;5.224;2023-06-19T06:35:25;8.31;;;6.0;;
36833;SDS011;48003;52.084;5.224;2023-06-19T06:37:03;7.6;;;5.8;;
36833;SDS011;48003;52.084;5.224;2023-06-19T06:38:39;9.4;;;6.4;;
36833;SDS011;48003;52.084;5.224;2023-06-19T06:40:16;7.9;;;6.5;;
36833;SDS011;48003;52.084;5.224;2023-06-19T06:43:31;11.6;;;6.7;;
36833;SDS011;48003;52.084;5.224;2023-06-19T06:45:09;9.71;;;6.7;;
36833;SDS011;48003;52.084;5.224;2023-06-19T06:46:47;9.0;;;7.3;;
36833;SDS011;48003;52.084;5.224;2023-06-19T06:50:00;11.1;;;8.4;;
36833;SDS011;48003;52.084;5.224;2023-06-19T06:51:37;13.8;;;9.0;;
36833;SDS011;48003;52.084;5.224;2023-06-19T06:53:14;13.3;;;10.21;;
36833;SDS011;48003;52.084;5.224;2023-06-19T06:56:28;14.1;;;11.1;;
36833;SDS011;48003;52.084;5.224;2023-06-19T06:58:05;11.8;;;9.81;;
36833;SDS011;48003;52.084;5.224;2023-06-19T06:59:41;14.9;;;10.9;;
36833;SDS011;48003;52.084;5.224;2023-06-19T07:01:18;14.2;;;11.3;;
36833;SDS011;48003;52.084;5.224;2023-06-19T07:04:31;14.3;;;10.8;;
36833;SDS011;48003;52.084;5.224;2023-06-19T07:06:08;14.4;;;11.0;;
36833;SDS011;48003;52.084;5.224;2023-06-19T07:07:45;13.7;;;11.6;;
36833;SDS011;48003;52.084;5.224;2023-06-19T07:10:59;14.3;;;11.3;;
36833;SDS011;48003;52.084;5.224;2023-06-19T07:12:35;15.4;;;12.4;;
36833;SDS011;48003;52.084;5.224;2023-06-19T07:14:20;15.1;;;11.7;;
36833;SDS011;48003;52.084;5.224;2023-06-19T07:15:57;17.7;;;12.7;;
36833;SDS011;48003;52.084;5.224;2023-06-19T07:19:09;17.2;;;12.3;;
36833;SDS011;48003;52.084;5.224;2023-06-19T07:20:46;13.9;;;10.6;;
36833;SDS011;48003;52.084;5.224;2023-06-19T07:22:24;16.5;;;10.7;;
36833;SDS011;48003;52.084;5.224;2023-06-19T07:25:37;15.8;;;10.3;;
36833;SDS011;48003;52.084;5.224;2023-06-19T07:27:14;13.9;;;10.6;;
36833;SDS011;48003;52.084;5.224;2023-06-19T07:28:52;17.11;;;11.8;;
36833;SDS011;48003;52.084;5.224;2023-06-19T07:30:28;15.5;;;11.1;;
36833;SDS011;48003;52.084;5.224;2023-06-19T07:33:43;14.4;;;11.0;;
36833;SDS011;48003;52.084;5.224;2023-06-19T07:35:20;14.3;;;10.3;;
36833;SDS011;48003;52.084;5.224;2023-06-19T07:36:56;15.3;;;10.0;;
36833;SDS011;48003;52.084;5.224;2023-06-19T07:40:09;12.4;;;9.71;;
36833;SDS011;48003;52.084;5.224;2023-06-19T07:41:47;14.7;;;10.1;;
36833;SDS011;48003;52.084;5.224;2023-06-19T07:43:24;16.3;;;13.4;;
36833;SDS011;48003;52.084;5.224;2023-06-19T07:46:37;19.3;;;14.2;;
36833;SDS011;48003;52.084;5.224;2023-06-19T07:48:14;23.6;;;15.4;;
36833;SDS011;48003;52.084;5.224;2023-06-19T07:49:51;17.91;;;14.0;;
36833;SDS011;48003;52.084;5.224;2023-06-19T07:51:29;19.5;;;15.3;;
36833;SDS011;48003;52.084;5.224;2023-06-19T07:54:50;20.2;;;16.2;;
36833;SDS011;48003;52.084;5.224;2023-06-19T07:56:33;22.7;;;16.7;;
36833;SDS011;48003;52.084;5.224;2023-06-19T07:58:10;21.8;;;15.7;;
36833;SDS011;48003;52.084;5.224;2023-06-19T07:59:48;20.0;;;15.2;;
36833;SDS011;48003;52.084;5.224;2023-06-19T08:03:03;23.5;;;16.11;;
36833;SDS011;48003;52.084;5.224;2023-06-19T08:04:40;20.6;;;15.3;;
36833;SDS011;48003;52.084;5.224;2023-06-19T08:06:17;22.8;;;16.7;;
36833;SDS011;48003;52.084;5.224;2023-06-19T08:09:31;19.41;;;15.7;;
36833;SDS011;48003;52.084;5.224;2023-06-19T08:11:08;18.41;;;15.1;;
36833;SDS011;48003;52.084;5.224;2023-06-19T08:12:44;21.1;;;15.7;;
36833;SDS011;48003;52.084;5.224;2023-06-19T08:15:57;22.8;;;16.11;;
36833;SDS011;48003;52.084;5.224;2023-06-19T08:17:33;20.9;;;15.8;;
36833;SDS011;48003;52.084;5.224;2023-06-19T08:19:09;22.9;;;17.0;;
36833;SDS011;48003;52.084;5.224;2023-06-19T08:20:46;21.4;;;16.4;;
36833;SDS011;48003;52.084;5.224;2023-06-19T08:23:58;23.4;;;16.8;;
36833;SDS011;48003;52.084;5.224;2023-06-19T08:25:34;21.8;;;17.2;;
36833;SDS011;48003;52.084;5.224;2023-06-19T08:27:10;23.1;;;17.11;;
36833;SDS011;48003;52.084;5.224;2023-06-19T08:30:23;24.7;;;17.61;;
36833;SDS011;48003;52.084;5.224;2023-06-19T08:31:59;21.1;;;15.9;;
36833;SDS011;48003;52.084;5.224;2023-06-19T08:33:35;21.1;;;16.3;;
36833;SDS011;48003;52.084;5.224;2023-06-19T08:36:47;26.5;;;17.61;;
36833;SDS011;48003;52.084;5.224;2023-06-19T08:38:23;26.4;;;18.0;;
36833;SDS011;48003;52.084;5.224;2023-06-19T08:40:00;24.0;;;18.61;;
36833;SDS011;48003;52.084;5.224;2023-06-19T08:41:36;21.3;;;17.61;;
36833;SDS011;48003;52.084;5.224;2023-06-19T08:44:49;22.6;;;18.0;;
36833;SDS011;48003;52.084;5.224;2023-06-19T08:46:26;23.7;;;17.91;;
36833;SDS011;48003;52.084;5.224;2023-06-19T08:48:02;24.7;;;18.91;;
36833;SDS011;48003;52.084;5.224;2023-06-19T08:51:16;23.3;;;18.91;;
36833;SDS011;48003;52.084;5.224;2023-06-19T08:52:52;23.3;;;18.91;;
36833;SDS011;48003;52.084;5.224;2023-06-19T08:54:28;22.5;;;18.2;;
36833;SDS011;48003;52.084;5.224;2023-06-19T08:57:40;21.1;;;17.11;;
36833;SDS011;48003;52.084;5.224;2023-06-19T08:59:17;25.9;;;19.11;;
36833;SDS011;48003;52.084;5.224;2023-06-19T09:00:54;25.0;;;19.5;;
36833;SDS011;48003;52.084;5.224;2023-06-19T09:02:37;25.8;;;19.41;;
36833;SDS011;48003;52.084;5.224;2023-06-19T09:05:52;26.6;;;19.8;;
36833;SDS011;48003;52.084;5.224;2023-06-19T09:07:28;24.0;;;19.41;;
36833;SDS011;48003;52.084;5.224;2023-06-19T09:09:04;25.1;;;19.61;;
36833;SDS011;48003;52.084;5.224;2023-06-19T09:12:17;23.7;;;19.0;;
36833;SDS011;48003;52.084;5.224;2023-06-19T09:13:56;27.3;;;19.8;;
36833;SDS011;48003;52.084;5.224;2023-06-19T09:15:33;25.0;;;18.7;;
36833;SDS011;48003;52.084;5.224;2023-06-19T09:17:12;23.8;;;18.41;;
36833;SDS011;48003;52.084;5.224;2023-06-19T09:20:26;24.0;;;20.11;;
36833;SDS011;48003;52.084;5.224;2023-06-19T09:22:03;24.3;;;18.91;;
36833;SDS011;48003;52.084;5.224;2023-06-19T09:23:41;23.3;;;18.61;;
36833;SDS011;48003;52.084;5.224;2023-06-19T09:26:53;25.4;;;18.7;;
36833;SDS011;48003;52.084;5.224;2023-06-19T09:28:41;27.9;;;20.2;;
36833;SDS011;48003;52.084;5.224;2023-06-19T09:30:17;24.6;;;18.8;;
36833;SDS011;48003;52.084;5.224;2023-06-19T09:31:53;23.6;;;18.5;;
36833;SDS011;48003;52.084;5.224;2023-06-19T09:35:08;25.6;;;19.11;;
36833;SDS011;48003;52.084;5.224;2023-06-19T09:36:44;24.3;;;18.2;;
36833;SDS011;48003;52.084;5.224;2023-06-19T09:38:24;22.8;;;17.7;;
36833;SDS011;48003;52.084;5.224;2023-06-19T09:41:39;23.6;;;17.3;;
36833;SDS011;48003;52.084;5.224;2023-06-19T09:43:19;24.1;;;18.11;;
36833;SDS011;48003;52.084;5.224;2023-06-19T09:44:59;23.6;;;18.0;;
36833;SDS011;48003;52.084;5.224;2023-06-19T09:46:38;23.9;;;17.61;;
36833;SDS011;48003;52.084;5.224;2023-06-19T09:50:08;23.3;;;18.3;;
36833;SDS011;48003;52.084;5.224;2023-06-19T09:51:47;23.6;;;17.8;;
36833;SDS011;48003;52.084;5.224;2023-06-19T09:53:25;22.8;;;17.0;;
36833;SDS011;48003;52.084;5.224;2023-06-19T09:55:02;24.6;;;17.41;;
36833;SDS011;48003;52.084;5.224;2023-06-19T09:58:16;24.0;;;17.3;;
36833;SDS011;48003;52.084;5.224;2023-06-19T09:59:55;22.7;;;16.61;;
36833;SDS011;48003;52.084;5.224;2023-06-19T10:01:33;20.2;;;15.1;;
36833;SDS011;48003;52.084;5.224;2023-06-19T10:03:11;21.6;;;16.5;;
36833;SDS011;48003;52.084;5.224;2023-06-19T10:06:27;21.7;;;17.0;;
36833;SDS011;48003;52.084;5.224;2023-06-19T10:08:03;22.0;;;15.2;;
36833;SDS011;48003;52.084;5.224;2023-06-19T10:09:39;17.91;;;14.3;;
36833;SDS011;48003;52.084;5.224;2023-06-19T10:12:53;23.5;;;16.4;;
36833;SDS011;48003;52.084;5.224;2023-06-19T10:14:30;22.7;;;16.4;;
36833;SDS011;48003;52.084;5.224;2023-06-19T10:16:07;20.9;;;16.7;;
36833;SDS011;48003;52.084;5.224;2023-06-19T10:21:15;23.5;;;18.61;;
36833;SDS011;48003;52.084;5.224;2023-06-19T10:22:56;26.7;;;19.7;;
36833;SDS011;48003;52.084;5.224;2023-06-19T10:24:33;24.2;;;19.11;;
36833;SDS011;48003;52.084;5.224;2023-06-19T10:27:51;26.6;;;18.61;;
36833;SDS011;48003;52.084;5.224;2023-06-19T10:29:37;24.4;;;19.41;;
36833;SDS011;48003;52.084;5.224;2023-06-19T10:31:14;22.5;;;18.5;;
36833;SDS011;48003;52.084;5.224;2023-06-19T10:32:50;21.0;;;17.11;;
36833;SDS011;48003;52.084;5.224;2023-06-19T10:36:13;22.5;;;17.5;;
36833;SDS011;48003;52.084;5.224;2023-06-19T10:37:55;23.3;;;17.7;;
36833;SDS011;48003;52.084;5.224;2023-06-19T10:39:31;24.1;;;17.2;;
36833;SDS011;48003;52.084;5.224;2023-06-19T10:41:14;21.4;;;16.61;;
36833;SDS011;48003;52.084;5.224;2023-06-19T10:44:27;22.8;;;17.2;;
36833;SDS011;48003;52.084;5.224;2023-06-19T10:46:03;21.5;;;17.11;;
36833;SDS011;48003;52.084;5.224;2023-06-19T10:47:39;20.0;;;15.9;;
36833;SDS011;48003;52.084;5.224;2023-06-19T10:49:16;24.2;;;16.0;;
36833;SDS011;48003;52.084;5.224;2023-06-19T10:52:31;21.0;;;15.7;;
36833;SDS011;48003;52.084;5.224;2023-06-19T10:54:09;21.3;;;15.5;;
36833;SDS011;48003;52.084;5.224;2023-06-19T10:55:45;22.0;;;17.0;;
36833;SDS011;48003;52.084;5.224;2023-06-19T10:59:04;21.4;;;15.8;;
36833;SDS011;48003;52.084;5.224;2023-06-19T11:00:42;22.2;;;15.5;;
36833;SDS011;48003;52.084;5.224;2023-06-19T11:02:18;18.0;;;15.4;;
36833;SDS011;48003;52.084;5.224;2023-06-19T11:03:54;21.5;;;15.6;;
36833;SDS011;48003;52.084;5.224;2023-06-19T11:07:07;17.41;;;14.5;;
36833;SDS011;48003;52.084;5.224;2023-06-19T11:08:50;20.9;;;15.4;;
36833;SDS011;48003;52.084;5.224;2023-06-19T11:10:27;20.3;;;15.5;;
36833;SDS011;48003;52.084;5.224;2023-06-19T11:13:42;17.41;;;14.3;;
36833;SDS011;48003;52.084;5.224;2023-06-19T11:15:19;19.91;;;15.4;;
36833;SDS011;48003;52.084;5.224;2023-06-19T11:16:55;17.3;;;14.7;;
36833;SDS011;48003;52.084;5.224;2023-06-19T11:18:31;17.3;;;14.0;;
36833;SDS011;48003;52.084;5.224;2023-06-19T11:21:47;17.11;;;13.6;;
36833;SDS011;48003;52.084;5.224;2023-06-19T11:23:25;18.91;;;13.9;;
36833;SDS011;48003;52.084;5.224;2023-06-19T11:25:04;14.4;;;12.5;;
36833;SDS011;48003;52.084;5.224;2023-06-19T11:28:21;17.3;;;14.6;;
36833;SDS011;48003;52.084;5.224;2023-06-19T11:29:57;17.3;;;14.7;;
36833;SDS011;48003;52.084;5.224;2023-06-19T11:31:34;16.7;;;13.7;;
36833;SDS011;48003;52.084;5.224;2023-06-19T11:33:18;17.91;;;14.3;;
36833;SDS011;48003;52.084;5.224;2023-06-19T11:36:31;17.8;;;14.1;;
36833;SDS011;48003;52.084;5.224;2023-06-19T11:38:08;18.0;;;13.6;;
36833;SDS011;48003;52.084;5.224;2023-06-19T11:39:44;15.6;;;12.5;;
36833;SDS011;48003;52.084;5.224;2023-06-19T11:43:02;17.3;;;14.3;;
36833;SDS011;48003;52.084;5.224;2023-06-19T11:44:52;14.9;;;12.0;;
36833;SDS011;48003;52.084;5.224;2023-06-19T11:46:29;17.61;;;13.2;;
36833;SDS011;48003;52.084;5.224;2023-06-19T11:48:06;15.2;;;12.8;;
36833;SDS011;48003;52.084;5.224;2023-06-19T11:51:18;14.5;;;12.4;;
36833;SDS011;48003;52.084;5.224;2023-06-19T11:52:54;14.9;;;12.1;;
36833;SDS011;48003;52.084;5.224;2023-06-19T11:54:30;16.0;;;12.9;;
36833;SDS011;48003;52.084;5.224;2023-06-19T11:57:43;15.1;;;11.3;;
36833;SDS011;48003;52.084;5.224;2023-06-19T11:59:19;15.7;;;12.4;;
36833;SDS011;48003;52.084;5.224;2023-06-19T12:00:55;15.4;;;11.7;;
36833;SDS011;48003;52.084;5.224;2023-06-19T12:02:31;15.0;;;11.2;;
36833;SDS011;48003;52.084;5.224;2023-06-19T12:05:43;12.0;;;10.0;;
36833;SDS011;48003;52.084;5.224;2023-06-19T12:07:19;13.8;;;11.3;;
36833;SDS011;48003;52.084;5.224;2023-06-19T12:08:56;13.5;;;11.4;;
36833;SDS011;48003;52.084;5.224;2023-06-19T12:12:09;13.5;;;10.8;;
36833;SDS011;48003;52.084;5.224;2023-06-19T12:13:46;13.2;;;10.7;;
36833;SDS011;48003;52.084;5.224;2023-06-19T12:15:22;14.6;;;10.21;;
36833;SDS011;48003;52.084;5.224;2023-06-19T12:18:37;13.4;;;10.5;;
36833;SDS011;48003;52.084;5.224;2023-06-19T12:20:14;13.4;;;11.0;;
36833;SDS011;48003;52.084;5.224;2023-06-19T12:21:50;12.9;;;10.5;;
36833;SDS011;48003;52.084;5.224;2023-06-19T12:23:27;15.4;;;11.7;;
36833;SDS011;48003;52.084;5.224;2023-06-19T12:26:39;13.3;;;10.8;;
36833;SDS011;48003;52.084;5.224;2023-06-19T12:28:16;13.9;;;11.7;;
36833;SDS011;48003;52.084;5.224;2023-06-19T12:29:52;14.1;;;11.8;;
36833;SDS011;48003;52.084;5.224;2023-06-19T12:33:04;14.9;;;10.4;;
36833;SDS011;48003;52.084;5.224;2023-06-19T12:34:40;12.4;;;10.4;;
36833;SDS011;48003;52.084;5.224;2023-06-19T12:36:16;14.1;;;11.2;;
36833;SDS011;48003;52.084;5.224;2023-06-19T12:39:29;12.4;;;10.21;;
36833;SDS011;48003;52.084;5.224;2023-06-19T12:41:05;12.2;;;9.81;;
36833;SDS011;48003;52.084;5.224;2023-06-19T12:42:41;12.5;;;9.6;;
36833;SDS011;48003;52.084;5.224;2023-06-19T12:44:17;10.8;;;8.5;;